createdAt,value
2022-08-11T00:01:42.365Z,96062.81
2022-08-11T00:04:08.798Z,96082.41
2022-08-11T00:06:35.219Z,96065.97
2022-08-11T00:09:01.627Z,96068.09
2022-08-11T00:11:28.060Z,96075.75
2022-08-11T00:13:55.827Z,96067.44
2022-08-11T00:16:22.219Z,96072.38
2022-08-11T00:18:48.641Z,96086.25
2022-08-11T00:21:15.045Z,96086.25
2022-08-11T00:23:41.504Z,96078.19
2022-08-11T00:26:07.962Z,96076.97
2022-08-11T00:28:34.364Z,96084.84
2022-08-11T00:31:00.753Z,96089.78
2022-08-11T00:33:44.849Z,96087.84
2022-08-11T00:36:11.813Z,96088.94
2022-08-11T00:38:38.374Z,96083.13
2022-08-11T00:41:04.766Z,96076.97
2022-08-11T00:43:31.149Z,96074.28
2022-08-11T00:45:57.602Z,96088.13
2022-08-11T00:48:24.001Z,96072.75
2022-08-11T00:50:50.386Z,96074.88
2022-08-11T00:53:16.824Z,96079.16
2022-08-11T00:55:47.273Z,96087.00
2022-08-11T00:58:22.688Z,96088.59
2022-08-11T01:00:49.190Z,96093.22
2022-08-11T01:03:15.632Z,96094.06
2022-08-11T01:05:42.092Z,96099.22
2022-08-11T01:08:08.466Z,96100.28
2022-08-11T01:10:34.850Z,96101.81
2022-08-11T01:13:01.425Z,96098.56
2022-08-11T01:15:27.806Z,96092.44
2022-08-11T01:17:54.189Z,96093.19
2022-08-11T01:20:44.938Z,96097.91
2022-08-11T01:23:07.386Z,96093.72
2022-08-11T01:25:33.996Z,96103.16
2022-08-11T01:28:20.355Z,96102.72
2022-08-11T01:30:46.898Z,96099.84
2022-08-11T01:33:13.288Z,96097.66
2022-08-11T01:35:41.144Z,96097.47
2022-08-11T01:38:07.569Z,96087.25
2022-08-11T01:40:33.975Z,96089.06
2022-08-11T01:43:00.369Z,96091.41
2022-08-11T01:45:26.803Z,96097.56
2022-08-11T01:47:54.341Z,96085.72
2022-08-11T01:50:20.872Z,96089.56
2022-08-11T01:52:47.401Z,96080.03
2022-08-11T01:55:13.817Z,96083.88
2022-08-11T01:57:40.199Z,96082.41
2022-08-11T02:00:06.640Z,96076.59
2022-08-11T02:02:33.075Z,96084.06
2022-08-11T02:04:59.482Z,96077.19
2022-08-11T02:07:25.917Z,96081.88
2022-08-11T02:09:52.298Z,96082.81
2022-08-11T02:12:18.846Z,96083.31
2022-08-11T02:15:04.507Z,96084.56
2022-08-11T02:17:31.662Z,96080.38
2022-08-11T02:19:58.216Z,96084.50
2022-08-11T02:22:24.601Z,96084.94
2022-08-11T02:24:50.987Z,96073.84
2022-08-11T02:27:17.405Z,96078.88
2022-08-11T02:29:43.791Z,96088.09
2022-08-11T02:32:25.652Z,96075.44
2022-08-11T02:34:59.668Z,96081.22
2022-08-11T02:37:26.897Z,96080.06
2022-08-11T02:39:53.319Z,96089.41
2022-08-11T02:42:32.628Z,96085.31
2022-08-11T02:45:02.424Z,96083.50
2022-08-11T02:47:29.191Z,96084.00
2022-08-11T02:50:02.661Z,96081.75
2022-08-11T02:52:33.622Z,96088.50
2022-08-11T02:55:00.677Z,96082.38
2022-08-11T02:57:27.126Z,96086.91
2022-08-11T02:59:53.732Z,96088.81
2022-08-11T03:02:20.259Z,96085.03
2022-08-11T03:04:46.676Z,96090.75
2022-08-11T03:07:28.968Z,96100.31
2022-08-11T03:09:56.176Z,96095.69
2022-08-11T03:12:22.601Z,96096.88
2022-08-11T03:14:48.985Z,96089.06
2022-08-11T03:17:15.367Z,96094.88
2022-08-11T03:19:41.818Z,96094.53
2022-08-11T03:22:08.238Z,96092.59
2022-08-11T03:24:34.614Z,96093.75
2022-08-11T03:27:01.050Z,96086.66
2022-08-11T03:29:27.434Z,96085.66
2022-08-11T03:31:53.873Z,96089.53
2022-08-11T03:34:20.296Z,96090.94
2022-08-11T03:36:54.568Z,96089.09
2022-08-11T03:39:33.229Z,96089.16
2022-08-11T03:42:04.255Z,96097.97
2022-08-11T03:44:31.863Z,96090.25
2022-08-11T03:46:58.330Z,96085.66
2022-08-11T03:49:24.731Z,96102.50
2022-08-11T03:51:52.176Z,96102.75
2022-08-11T03:54:19.051Z,96104.13
2022-08-11T03:56:45.424Z,96097.97
2022-08-11T03:59:11.816Z,96093.28
2022-08-11T04:01:38.358Z,96086.84
2022-08-11T04:04:04.790Z,96089.16
2022-08-11T04:06:31.168Z,96097.97
2022-08-11T04:08:57.644Z,96094.88
2022-08-11T04:11:24.036Z,96101.81
2022-08-11T04:13:50.445Z,96106.03
2022-08-11T04:16:16.878Z,96101.09
2022-08-11T04:18:43.272Z,96106.47
2022-08-11T04:21:09.696Z,96108.38
2022-08-11T04:24:33.378Z,96108.78
2022-08-11T04:26:22.530Z,96104.94
2022-08-11T04:28:51.707Z,96111.09
2022-08-11T04:31:49.588Z,96108.94
2022-08-11T04:34:04.477Z,96107.31
2022-08-11T04:36:30.952Z,96111.59
2022-08-11T04:38:58.577Z,96115.03
2022-08-11T04:41:25.055Z,96115.44
2022-08-11T04:44:02.864Z,96117.34
2022-08-11T04:46:33.203Z,96103.59
2022-08-11T04:48:59.582Z,96119.31
2022-08-11T04:51:25.957Z,96119.72
2022-08-11T04:53:52.538Z,96119.72
2022-08-11T04:56:19.010Z,96118.88
2022-08-11T04:58:45.404Z,96126.16
2022-08-11T05:01:11.953Z,96117.78
2022-08-11T05:03:38.361Z,96139.56
2022-08-11T05:06:04.740Z,96134.16
2022-08-11T05:08:31.145Z,96126.50
2022-08-11T05:10:57.537Z,96128.94
2022-08-11T05:13:23.924Z,96138.09
2022-08-11T05:15:51.644Z,96140.19
2022-08-11T05:18:18.084Z,96138.59
2022-08-11T05:20:44.463Z,96141.28
2022-08-11T05:23:10.906Z,96136.00
2022-08-11T05:26:44.553Z,96137.50
2022-08-11T05:28:23.698Z,96136.00
2022-08-11T05:30:50.099Z,96136.75
2022-08-11T05:33:16.518Z,96140.94
2022-08-11T05:36:01.915Z,96140.53
2022-08-11T05:38:29.336Z,96141.34
2022-08-11T05:41:00.137Z,96138.34
2022-08-11T05:43:26.931Z,96136.13
2022-08-11T05:46:04.077Z,96146.22
2022-08-11T05:48:32.057Z,96141.28
2022-08-11T05:50:58.461Z,96147.06
2022-08-11T05:53:24.846Z,96144.38
2022-08-11T05:56:02.108Z,96145.56
2022-08-11T05:58:29.787Z,96158.38
2022-08-11T06:00:56.241Z,96156.09
2022-08-11T06:03:22.619Z,96155.75
2022-08-11T06:05:48.995Z,96162.38
2022-08-11T06:08:20.527Z,96158.19
2022-08-11T06:10:47.021Z,96162.78
2022-08-11T06:13:13.410Z,96162.06
2022-08-11T06:15:39.908Z,96162.31
2022-08-11T06:18:06.301Z,96150.06
2022-08-11T06:20:32.715Z,96151.88
2022-08-11T06:22:59.181Z,96149.97
2022-08-11T06:25:25.551Z,96156.06
2022-08-11T06:27:51.933Z,96146.94
2022-08-11T06:30:18.500Z,96155.84
2022-08-11T06:32:44.877Z,96155.41
2022-08-11T06:35:11.309Z,96153.47
2022-08-11T06:37:37.765Z,96148.44
2022-08-11T06:40:04.164Z,96147.69
2022-08-11T06:42:30.577Z,96155.72
2022-08-11T06:44:56.999Z,96158.09
2022-08-11T06:47:23.449Z,96158.13
2022-08-11T06:49:49.881Z,96155.75
2022-08-11T06:52:35.504Z,96151.19
2022-08-11T06:55:02.674Z,96144.41
2022-08-11T06:57:32.576Z,96143.50
2022-08-11T06:59:58.956Z,96146.25
2022-08-11T07:02:30.541Z,96137.88
2022-08-11T07:04:57.600Z,96145.84
2022-08-11T07:07:24.022Z,96139.31
2022-08-11T07:09:50.411Z,96139.75
2022-08-11T07:12:16.875Z,96138.16
2022-08-11T07:14:43.424Z,96146.94
2022-08-11T07:17:09.849Z,96138.47
2022-08-11T07:19:36.364Z,96147.66
2022-08-11T07:22:04.134Z,96139.69
2022-08-11T07:24:34.207Z,96144.19
2022-08-11T07:27:01.083Z,96147.69
2022-08-11T07:29:27.489Z,96147.28
2022-08-11T07:31:53.873Z,96148.03
2022-08-11T07:34:20.381Z,96140.41
2022-08-11T07:36:46.766Z,96138.56
2022-08-11T07:39:13.232Z,96136.97
2022-08-11T07:41:39.715Z,96142.25
2022-08-11T07:44:06.155Z,96136.13
2022-08-11T07:46:32.555Z,96144.94
2022-08-11T07:48:59.011Z,96136.78
2022-08-11T07:51:25.410Z,96139.81
2022-08-11T07:53:58.504Z,96143.59
2022-08-11T07:56:39.522Z,96137.66
2022-08-11T07:59:16.389Z,96134.03
2022-08-11T08:01:43.571Z,96127.56
2022-08-11T08:04:10.038Z,96136.38
2022-08-11T08:06:36.712Z,96127.56
2022-08-11T08:09:03.231Z,96130.69
2022-08-11T08:11:29.660Z,96131.69
2022-08-11T08:13:56.062Z,96132.44
2022-08-11T08:16:22.514Z,96128.59
2022-08-11T08:18:48.905Z,96129.59
2022-08-11T08:21:15.341Z,96125.34
2022-08-11T08:23:41.779Z,96128.00
2022-08-11T08:26:13.682Z,96126.84
2022-08-11T08:28:43.435Z,96132.72
2022-08-11T08:31:09.835Z,96121.41
2022-08-11T08:33:36.277Z,96130.19
2022-08-11T08:36:02.734Z,96118.03
2022-08-11T08:38:29.182Z,96116.88
2022-08-11T08:40:56.544Z,96116.19
2022-08-11T08:43:25.315Z,96116.56
2022-08-11T08:45:51.779Z,96113.88
2022-08-11T08:48:18.181Z,96121.81
2022-08-11T08:50:47.039Z,96114.84
2022-08-11T08:53:13.513Z,96123.66
2022-08-11T08:55:44.975Z,96125.91
2022-08-11T08:58:11.957Z,96110.91
2022-08-11T09:00:38.490Z,96116.63
2022-08-11T09:03:22.928Z,96118.88
2022-08-11T09:05:51.349Z,96118.44
2022-08-11T09:08:17.735Z,96114.13
2022-08-11T09:10:44.139Z,96108.91
2022-08-11T09:13:10.589Z,96113.50
2022-08-11T09:15:36.980Z,96105.78
2022-08-11T09:18:03.388Z,96108.47
2022-08-11T09:20:29.821Z,96106.97
2022-08-11T09:23:29.460Z,96108.38
2022-08-11T09:25:42.629Z,96108.78
2022-08-11T09:28:09.038Z,96110.31
2022-08-11T09:30:35.489Z,96110.00
2022-08-11T09:33:02.047Z,96109.16
2022-08-11T09:35:28.441Z,96108.31
2022-08-11T09:37:56.477Z,96102.50
2022-08-11T09:40:23.141Z,96107.88
2022-08-11T09:42:53.743Z,96103.09
2022-08-11T09:45:20.133Z,96095.63
2022-08-11T09:47:46.668Z,96091.31
2022-08-11T09:50:13.041Z,96094.38
2022-08-11T09:52:48.070Z,96092.03
2022-08-11T09:55:23.823Z,96095.97
2022-08-11T09:57:50.203Z,96084.88
2022-08-11T10:00:16.615Z,96086.31
2022-08-11T10:02:43.167Z,96080.09
2022-08-11T10:05:09.578Z,96087.06
2022-08-11T10:07:35.963Z,96067.44
2022-08-11T10:10:02.517Z,96072.59
2022-08-11T10:12:28.898Z,96072.84
2022-08-11T10:14:55.297Z,96069.84
2022-08-11T10:17:21.760Z,96065.53
2022-08-11T10:19:48.864Z,96067.72
2022-08-11T10:22:32.921Z,96064.50
2022-08-11T10:24:59.534Z,96060.25
2022-08-11T10:27:43.154Z,96052.88
2022-08-11T10:30:12.395Z,96053.28
2022-08-11T10:32:49.369Z,96048.25
2022-08-11T10:35:25.524Z,96047.50
2022-08-11T10:38:07.220Z,96044.38
2022-08-11T10:40:35.582Z,96042.78
2022-08-11T10:43:02.257Z,96038.53
2022-08-11T10:45:28.888Z,96041.13
2022-08-11T10:47:55.434Z,96034.56
2022-08-11T10:50:21.853Z,96038.00
2022-08-11T10:52:48.261Z,96033.72
2022-08-11T10:55:14.692Z,96035.22
2022-08-11T10:57:41.312Z,96029.41
2022-08-11T11:00:07.941Z,96025.69
2022-08-11T11:02:34.376Z,96023.97
2022-08-11T11:05:00.844Z,96016.00
2022-08-11T11:07:27.242Z,96016.44
2022-08-11T11:09:53.695Z,96007.69
2022-08-11T11:12:20.093Z,96004.28
2022-08-11T11:14:49.962Z,96005.69
2022-08-11T11:17:17.403Z,95996.47
2022-08-11T11:19:44.948Z,95997.19
2022-08-11T11:22:11.407Z,95997.94
2022-08-11T11:24:37.909Z,95985.72
2022-08-11T11:27:04.326Z,95995.56
2022-08-11T11:29:30.715Z,95985.59
2022-08-11T11:31:57.161Z,95986.34
2022-08-11T11:34:24.930Z,95990.97
2022-08-11T11:36:51.309Z,95988.19
2022-08-11T11:39:17.845Z,95987.97
2022-08-11T11:41:44.277Z,95984.31
2022-08-11T11:44:10.758Z,95981.84
2022-08-11T11:46:38.881Z,95974.63
2022-08-11T11:49:05.772Z,95972.59
2022-08-11T11:51:42.357Z,95975.63
2022-08-11T11:54:11.964Z,95970.34
2022-08-11T11:56:38.395Z,95973.69
2022-08-11T11:59:04.890Z,95961.66
2022-08-11T12:01:31.285Z,95965.41
2022-08-11T12:03:59.981Z,95962.72
2022-08-11T12:06:26.529Z,95966.16
2022-08-11T12:08:52.950Z,95967.66
2022-08-11T12:11:19.376Z,95962.81
2022-08-11T12:13:45.871Z,95965.41
2022-08-11T12:16:33.157Z,95968.00
2022-08-11T12:18:58.823Z,95965.13
2022-08-11T12:21:25.306Z,95960.91
2022-08-11T12:23:51.724Z,95960.13
2022-08-11T12:26:26.950Z,95955.53
2022-08-11T12:28:53.922Z,95942.41
2022-08-11T12:31:20.408Z,95940.59
2022-08-11T12:33:46.800Z,95943.28
2022-08-11T12:36:13.218Z,95942.53
2022-08-11T12:38:39.764Z,95928.25
2022-08-11T12:41:21.421Z,95937.69
2022-08-11T12:43:57.109Z,95928.56
2022-08-11T12:46:24.331Z,95928.88
2022-08-11T12:48:59.535Z,95920.72
2022-08-11T12:51:28.278Z,95918.03
2022-08-11T12:53:54.788Z,95921.69
2022-08-11T12:56:21.238Z,95913.94
2022-08-11T12:58:47.625Z,95910.72
2022-08-11T13:01:16.276Z,95902.13
2022-08-11T13:03:42.747Z,95898.78
2022-08-11T13:06:09.137Z,95901.16
2022-08-11T13:08:35.644Z,95897.28
2022-08-11T13:11:02.150Z,95894.59
2022-08-11T13:13:53.664Z,95891.81
2022-08-11T13:16:15.061Z,95897.63
2022-08-11T13:18:41.518Z,95881.81
2022-08-11T13:21:07.924Z,95876.88
2022-08-11T13:23:34.383Z,95877.94
2022-08-11T13:26:00.795Z,95877.38
2022-08-11T13:28:27.176Z,95871.28
2022-08-11T13:30:53.712Z,95875.34
2022-08-11T13:33:20.147Z,95870.75
2022-08-11T13:35:46.607Z,95869.53
2022-08-11T13:38:27.456Z,95870.94
2022-08-11T13:40:56.033Z,95861.69
2022-08-11T13:43:22.754Z,95860.84
2022-08-11T13:45:49.157Z,95853.97
2022-08-11T13:48:15.565Z,95849.97
2022-08-11T13:50:41.993Z,95852.34
2022-08-11T13:53:08.404Z,95843.22
2022-08-11T13:55:51.655Z,95842.47
2022-08-11T13:58:39.949Z,95836.22
2022-08-11T14:01:51.376Z,95836.69
2022-08-11T14:04:28.878Z,95827.53
2022-08-11T14:06:40.215Z,95829.38
2022-08-11T14:09:09.700Z,95828.94
2022-08-11T14:12:20.430Z,95829.25
2022-08-11T14:14:22.552Z,95818.06
2022-08-11T14:16:48.990Z,95828.38
2022-08-11T14:19:15.420Z,95827.25
2022-08-11T14:21:42.046Z,95818.34
2022-08-11T14:24:08.512Z,95817.31
2022-08-11T14:26:34.904Z,95812.34
2022-08-11T14:29:01.477Z,95809.38
2022-08-11T14:31:27.896Z,95812.91
2022-08-11T14:33:59.613Z,95806.97
2022-08-11T14:36:28.122Z,95811.09
2022-08-11T14:38:54.520Z,95813.63
2022-08-11T14:41:20.973Z,95805.19
2022-08-11T14:44:12.822Z,95800.88
2022-08-11T14:46:33.841Z,95798.59
2022-08-11T14:49:00.368Z,95794.81
2022-08-11T14:51:26.777Z,95789.81
2022-08-11T14:53:58.750Z,95791.41
2022-08-11T14:56:25.440Z,95789.44
2022-08-11T14:58:51.840Z,95798.59
2022-08-11T15:01:18.350Z,95792.34
2022-08-11T15:04:04.476Z,95789.13
2022-08-11T15:06:31.196Z,95792.13
2022-08-11T15:08:57.666Z,95783.47
2022-08-11T15:11:24.093Z,95780.13
2022-08-11T15:13:51.039Z,95778.09
2022-08-11T15:16:17.525Z,95779.91
2022-08-11T15:18:43.948Z,95776.00
2022-08-11T15:21:10.330Z,95776.47
2022-08-11T15:23:36.868Z,95771.41
2022-08-11T15:26:03.284Z,95769.91
2022-08-11T15:28:29.660Z,95771.94
2022-08-11T15:30:56.079Z,95771.00
2022-08-11T15:33:22.471Z,95770.88
2022-08-11T15:35:48.896Z,95770.44
2022-08-11T15:38:15.511Z,95772.38
2022-08-11T15:40:41.911Z,95772.94
2022-08-11T15:43:12.895Z,95761.50
2022-08-11T15:45:39.555Z,95762.38
2022-08-11T15:48:08.001Z,95759.50
2022-08-11T15:50:37.025Z,95752.53
2022-08-11T15:53:03.510Z,95755.06
2022-08-11T15:55:29.917Z,95753.59
2022-08-11T15:57:56.492Z,95752.38
2022-08-11T16:00:24.569Z,95750.03
2022-08-11T16:02:51.041Z,95747.00
2022-08-11T16:05:44.960Z,95748.06
2022-08-11T16:08:03.841Z,95743.16
2022-08-11T16:10:30.283Z,95745.19
2022-08-11T16:13:00.262Z,95745.38
2022-08-11T16:15:26.691Z,95739.28
2022-08-11T16:17:53.106Z,95734.34
2022-08-11T16:20:19.519Z,95735.09
2022-08-11T16:22:55.311Z,95738.19
2022-08-11T16:27:05.336Z,95731.06
2022-08-11T16:28:14.701Z,95731.00
2022-08-11T16:30:41.124Z,95723.81
2022-08-11T16:33:48.866Z,95721.13
2022-08-11T16:35:54.024Z,95720.13
2022-08-11T16:38:20.415Z,95715.38
2022-08-11T16:40:46.828Z,95714.75
2022-08-11T16:43:13.309Z,95709.69
2022-08-11T16:45:39.702Z,95705.94
2022-08-11T16:48:35.423Z,95706.88
2022-08-11T16:50:52.495Z,95713.75
2022-08-11T16:53:18.882Z,95707.31
2022-08-11T16:55:52.218Z,95707.19
2022-08-11T16:58:19.474Z,95709.75
2022-08-11T17:00:46.144Z,95710.19
2022-08-11T17:03:12.578Z,95712.31
2022-08-11T17:05:54.422Z,95707.09
2022-08-11T17:08:22.791Z,95701.72
2022-08-11T17:10:55.403Z,95704.41
2022-08-11T17:13:24.093Z,95704.25
2022-08-11T17:15:51.000Z,95702.00
2022-08-11T17:18:17.547Z,95704.25
2022-08-11T17:20:44.284Z,95696.63
2022-08-11T17:23:13.203Z,95700.25
2022-08-11T17:25:59.127Z,95704.56
2022-08-11T17:28:26.308Z,95695.13
2022-08-11T17:30:52.732Z,95697.38
2022-08-11T17:33:19.137Z,95696.00
2022-08-11T17:35:45.527Z,95698.56
2022-08-11T17:38:11.973Z,95696.91
2022-08-11T17:40:38.356Z,95694.88
2022-08-11T17:43:04.765Z,95697.88
2022-08-11T17:45:31.203Z,95695.63
2022-08-11T17:47:57.613Z,95697.88
2022-08-11T17:50:24.041Z,95707.28
2022-08-11T17:52:50.496Z,95703.97
2022-08-11T17:55:16.907Z,95695.97
2022-08-11T17:58:03.305Z,95696.81
2022-08-11T18:00:29.690Z,95702.63
2022-08-11T18:02:56.090Z,95706.50
2022-08-11T18:05:22.517Z,95694.88
2022-08-11T18:07:48.903Z,95705.06
2022-08-11T18:10:15.288Z,95697.59
2022-08-11T18:12:41.809Z,95698.34
2022-08-11T18:15:08.193Z,95694.59
2022-08-11T18:17:34.697Z,95701.31
2022-08-11T18:20:01.175Z,95710.94
2022-08-11T18:22:27.572Z,95711.69
2022-08-11T18:24:53.974Z,95709.13
2022-08-11T18:27:22.077Z,95708.34
2022-08-11T18:29:48.555Z,95716.75
2022-08-11T18:32:20.906Z,95710.81
2022-08-11T18:34:49.819Z,95709.59
2022-08-11T18:37:20.020Z,95707.66
2022-08-11T18:39:56.001Z,95717.47
2022-08-11T18:42:29.538Z,95711.06
2022-08-11T18:44:56.528Z,95706.78
2022-08-11T18:47:24.059Z,95714.88
2022-08-11T18:50:01.493Z,95715.84
2022-08-11T18:52:30.031Z,95714.50
2022-08-11T18:54:56.468Z,95712.56
2022-08-11T18:57:22.859Z,95721.38
2022-08-11T18:59:49.301Z,95720.94
2022-08-11T19:02:15.675Z,95723.34
2022-08-11T19:04:42.062Z,95721.72
2022-08-11T19:07:08.480Z,95723.50
2022-08-11T19:09:35.668Z,95723.50
2022-08-11T19:12:02.112Z,95733.94
2022-08-11T19:14:28.562Z,95726.59
2022-08-11T19:16:54.941Z,95730.34
2022-08-11T19:19:21.318Z,95737.69
2022-08-11T19:21:47.777Z,95738.00
2022-08-11T19:24:14.173Z,95734.25
2022-08-11T19:26:40.554Z,95741.13
2022-08-11T19:29:06.975Z,95731.84
2022-08-11T19:31:33.353Z,95733.69
2022-08-11T19:34:09.945Z,95736.38
2022-08-11T19:36:37.234Z,95741.44
2022-08-11T19:39:03.638Z,95744.38
2022-08-11T19:41:57.185Z,95737.81
2022-08-11T19:44:16.763Z,95741.88
2022-08-11T19:46:43.230Z,95745.00
2022-08-11T19:49:09.666Z,95742.25
2022-08-11T19:51:36.184Z,95751.25
2022-08-11T19:54:02.633Z,95746.19
2022-08-11T19:56:29.049Z,95752.78
2022-08-11T19:58:55.489Z,95748.00
2022-08-11T20:01:21.918Z,95750.56
2022-08-11T20:03:48.342Z,95749.50
2022-08-11T20:06:14.799Z,95760.28
2022-08-11T20:08:41.176Z,95766.38
2022-08-11T20:11:07.559Z,95758.31
2022-08-11T20:13:34.003Z,95768.78
2022-08-11T20:16:00.796Z,95764.22
2022-08-11T20:18:27.192Z,95761.53
2022-08-11T20:20:53.645Z,95764.69
2022-08-11T20:23:20.186Z,95770.84
2022-08-11T20:25:46.590Z,95773.06
2022-08-11T20:28:13.143Z,95771.72
2022-08-11T20:30:39.527Z,95777.66
2022-08-11T20:33:05.936Z,95768.53
2022-08-11T20:35:32.402Z,95777.53
2022-08-11T20:37:58.804Z,95782.91
2022-08-11T20:40:25.185Z,95779.88
2022-08-11T20:42:51.677Z,95785.91
2022-08-11T20:45:18.062Z,95787.75
2022-08-11T20:47:59.354Z,95784.53
2022-08-11T20:50:27.304Z,95789.47
2022-08-11T20:52:55.135Z,95792.25
2022-08-11T20:55:25.784Z,95783.63
2022-08-11T20:58:09.872Z,95792.47
2022-08-11T21:00:44.692Z,95786.84
2022-08-11T21:03:13.982Z,95793.03
2022-08-11T21:06:09.203Z,95791.13
2022-08-11T21:08:37.154Z,95788.59
2022-08-11T21:11:03.540Z,95783.03
2022-08-11T21:13:32.174Z,95783.13
2022-08-11T21:16:02.812Z,95792.41
2022-08-11T21:18:29.750Z,95784.44
2022-08-11T21:20:56.128Z,95789.81
2022-08-11T21:23:23.618Z,95784.75
2022-08-11T21:25:50.467Z,95796.38
2022-08-11T21:28:16.884Z,95783.13
2022-08-11T21:30:43.308Z,95785.63
2022-08-11T21:33:09.692Z,95792.41
2022-08-11T21:35:36.079Z,95792.41
2022-08-11T21:38:11.507Z,95790.59
2022-08-11T21:40:37.890Z,95790.28
2022-08-11T21:43:04.263Z,95788.22
2022-08-11T21:45:30.714Z,95785.81
2022-08-11T21:48:01.424Z,95791.56
2022-08-11T21:50:27.989Z,95787.59
2022-08-11T21:52:55.283Z,95791.19
2022-08-11T21:55:21.669Z,95789.72
2022-08-11T21:57:50.132Z,95788.31
2022-08-11T22:00:17.020Z,95786.94
2022-08-11T22:02:44.207Z,95797.28
2022-08-11T22:05:18.701Z,95795.97
2022-08-11T22:07:45.071Z,95792.31
2022-08-11T22:10:27.558Z,95795.50
2022-08-11T22:12:57.884Z,95803.38
2022-08-11T22:15:24.265Z,95792.06
2022-08-11T22:17:52.687Z,95804.44
2022-08-11T22:20:22.387Z,95807.03
2022-08-11T22:22:53.206Z,95806.25
2022-08-11T22:25:20.648Z,95807.34
2022-08-11T22:27:47.186Z,95802.72
2022-08-11T22:30:13.595Z,95809.59
2022-08-11T22:32:40.124Z,95813.69
2022-08-11T22:35:06.780Z,95797.97
2022-08-11T22:37:33.153Z,95798.84
2022-08-11T22:40:02.123Z,95810.78
2022-08-11T22:42:33.685Z,95802.50
2022-08-11T22:45:09.969Z,95801.34
2022-08-11T22:47:40.362Z,95799.25
2022-08-11T22:50:07.160Z,95795.81
2022-08-11T22:52:33.545Z,95795.50
2022-08-11T22:54:59.961Z,95801.66
2022-08-11T22:57:26.339Z,95803.16
2022-08-11T22:59:52.711Z,95801.66
2022-08-11T23:02:19.141Z,95804.91
2022-08-11T23:04:45.526Z,95811.13
2022-08-11T23:07:49.353Z,95817.88
2022-08-11T23:10:06.133Z,95809.72
2022-08-11T23:12:32.562Z,95821.34
2022-08-11T23:15:00.031Z,95824.63
2022-08-11T23:17:26.423Z,95818.34
2022-08-11T23:20:12.193Z,95820.66
2022-08-11T23:22:49.829Z,95830.16
2022-08-11T23:25:17.818Z,95830.25
2022-08-11T23:27:44.449Z,95831.66
2022-08-11T23:30:10.849Z,95826.41
2022-08-11T23:32:37.254Z,95827.56
2022-08-11T23:35:37.804Z,95830.59
2022-08-11T23:37:50.055Z,95817.38
2022-08-11T23:40:16.439Z,95820.19
2022-08-11T23:42:46.463Z,95821.56
2022-08-11T23:45:12.878Z,95812.97
2022-08-11T23:47:50.514Z,95826.84
2022-08-11T23:50:17.409Z,95820.25
2022-08-11T23:52:43.814Z,95814.56
2022-08-11T23:55:10.203Z,95816.66
2022-08-11T23:57:36.725Z,95819.84
